Airfield :
LOGIN :

Register | Disclaimer

   EN    FR    IT 

 










Legend :    VFR   Marginal VFR   IFR   Intensive IFR   Very Intensive IFR
Visi :
Ceiling :
>= 8 km
>= 3000ft
5 to 8 km
1000 to 3000 ft
1500m to 5 km
500 to 1000 ft
800 to 1500m
200 to 500 ft
< 800m
< 200 ft
Symbols :   Thunderstorms  Fog  Heavy snow  Heavy precipitations  Wind > 20 kt
SIGMETs :     Misc.  Thunderstorms  Icing  Turbulence  Mountain Waves  Volcanic Ashes






- Airport Elevation : 464 ft
- IATA code : EVX


LFOE - Evreux

CURRENT METAR :
  • 021300Z AUTO 12004KT 060V180 CAVOK 15/05 Q1027 NOSIG

EXPIRED METARs :
  • 021230Z AUTO 12005KT 080V160 CAVOK 14/06 Q1028 NOSIG
  • 021200Z AUTO 06004KT 010V110 CAVOK 12/06 Q1028 NOSIG
  • 021130Z AUTO 09004KT 060V120 CAVOK 12/05 Q1028 NOSIG
  • 021100Z AUTO 08004KT 040V120 9000 NSC 11/05 Q1028 NOSIG
  • 021030Z AUTO 12004KT 080V160 CAVOK 10/04 Q1028 NOSIG

TAF TAF LFOE
Valid from the 02 at 09:00 until the 03 at 09:00 UTC


020800Z 0209/0309 08003KT 8000 NSC
PROB30
TEMPO 0305/0308 4000 BR



MET'MAP, your aeronautical weather chart ! - Copyright ORBIFLY December 2007 - Disclaimer

ORBIFLY MET'MAP TEAM :

Programming & Development : Alexandra Zaïnal
Concept & original design : Baudouin d'Aumeries
Assistance for programming : Marc-Olivier Méhu
Technical & hardware support : Manuel Goepfert

Contact : metmap@orbifly.com




SOURCES & CREDITS :

   NOAA